Cheshire, Oregon
Current Conditions -  °F | °C
As of 7:54 PM on Tuesday 25 Nov 2014 (Local Time) from KEUG Reporting Station
Overcast Overcast  
Wind Chill: 55°   Ceiling: 5000
Heat Index: 55°   Visibility: 10mi
Dew Point: 51°   Wind: 0mph
Humidity: 86%   Direction: NA
Pressure: 30.34"   Gusts: NA
Location:  44.19°N, 123.29°W
Report Text: KEUG 260354Z 00000KT 10SM OVC050 13/11 A3034 RMK AO2 SLP274 T01280106
Loading
Personal Weather Stations






























Interactive Weather Map New forecast layout! Learn more

10-Day Weather Forecast

Advertisements
Track Severe Weather on mobile